Time;durP1;ratioP1;P1;durP2;ratioP2;P2;SDS_P1;SDS_P2;PMS_P1;PMS_P2;Temp;Humidity;BMP_temperature;BMP_pressure;BME280_temperature;BME280_humidity;BME280_pressure;Samples;Min_cycle;Max_cycle;Signal;HPM_P1;HPM_P2
2023/06/05 00:02:12;;;;;;;3.15;1.45;;;;;;;;;;5048496;28;20511;-75
2023/06/05 00:04:39;;;;;;;4.82;1.63;;;;;;;;;;5048574;28;20025;-75
2023/06/05 00:07:05;;;;;;;3.45;1.40;;;;;;;;;;5048463;28;20170;-75
2023/06/05 00:09:30;;;;;;;3.20;1.50;;;;;;;;;;5048741;28;20104;-76
2023/06/05 00:11:55;;;;;;;2.58;1.25;;;;;;;;;;5048080;28;20025;-75
2023/06/05 00:14:21;;;;;;;3.53;1.60;;;;;;;;;;5048612;28;20029;-76
2023/06/05 00:16:46;;;;;;;3.45;1.55;;;;;;;;;;5048230;28;20025;-75
2023/06/05 00:19:12;;;;;;;3.83;1.60;;;;;;;;;;5048232;28;20131;-75
2023/06/05 00:21:37;;;;;;;3.47;1.70;;;;;;;;;;5048286;28;20028;-75
2023/06/05 00:24:03;;;;;;;4.03;1.60;;;;;;;;;;5048631;28;20469;-75
2023/06/05 00:26:28;;;;;;;2.55;1.45;;;;;;;;;;5048381;28;20085;-75
2023/06/05 00:28:54;;;;;;;3.38;1.50;;;;;;;;;;5047999;28;20033;-75
2023/06/05 00:31:21;;;;;;;3.67;1.67;;;;;;;;;;5048327;28;20473;-75
2023/06/05 00:33:47;;;;;;;3.03;1.63;;;;;;;;;;5047189;28;20040;-75
2023/06/05 00:36:12;;;;;;;4.32;1.50;;;;;;;;;;5048115;28;20506;-76
2023/06/05 00:38:38;;;;;;;4.30;1.60;;;;;;;;;;5046962;28;20139;-76
2023/06/05 00:41:03;;;;;;;4.50;1.45;;;;;;;;;;5048003;28;20028;-75
2023/06/05 00:43:29;;;;;;;3.85;1.80;;;;;;;;;;5048103;28;20017;-75
2023/06/05 00:46:02;;;;;;;3.25;1.55;;;;;;;;;;5047879;28;20017;-76
2023/06/05 00:48:31;;;;;;;3.22;1.70;;;;;;;;;;5047918;28;20027;-75
2023/06/05 00:50:57;;;;;;;3.45;1.50;;;;;;;;;;5046596;28;20025;-75
2023/06/05 00:53:24;;;;;;;2.78;1.63;;;;;;;;;;5047736;28;20017;-75
2023/06/05 00:55:50;;;;;;;2.88;1.60;;;;;;;;;;5048647;28;20025;-76
2023/06/05 00:58:16;;;;;;;2.47;1.52;;;;;;;;;;5048109;28;20571;-75
2023/06/05 01:00:42;;;;;;;3.53;1.60;;;;;;;;;;5048204;28;20033;-75
2023/06/05 01:03:08;;;;;;;2.83;1.67;;;;;;;;;;5047600;28;20028;-76
2023/06/05 01:05:36;;;;;;;3.00;1.70;;;;;;;;;;5047838;28;20025;-75
2023/06/05 01:08:02;;;;;;;3.47;1.73;;;;;;;;;;5046411;28;20037;-76
2023/06/05 01:10:28;;;;;;;2.33;1.50;;;;;;;;;;5048458;28;20029;-76
2023/06/05 01:13:11;;;;;;;3.38;1.80;;;;;;;;;;5048206;28;20463;-75
2023/06/05 01:15:37;;;;;;;4.65;2.00;;;;;;;;;;5048151;28;20466;-76
2023/06/05 01:18:04;;;;;;;4.65;1.88;;;;;;;;;;5046912;28;20048;-75
2023/06/05 01:20:38;;;;;;;2.47;1.88;;;;;;;;;;5047458;28;20075;-75
2023/06/05 01:23:05;;;;;;;3.38;1.70;;;;;;;;;;5047022;28;20060;-76
2023/06/05 01:25:32;;;;;;;3.38;1.90;;;;;;;;;;5047561;28;20112;-75
2023/06/05 01:28:10;;;;;;;2.22;1.70;;;;;;;;;;5047220;28;20039;-76
2023/06/05 01:31:08;;;;;;;7.07;2.10;;;;;;;;;;5047640;28;20051;-76
2023/06/05 01:33:44;;;;;;;3.70;1.67;;;;;;;;;;5047136;28;20049;-76
2023/06/05 01:36:11;;;;;;;4.00;1.95;;;;;;;;;;5048065;28;20051;-75
2023/06/05 01:38:39;;;;;;;2.45;1.65;;;;;;;;;;5046959;28;20123;-75
2023/06/05 01:41:05;;;;;;;6.22;1.90;;;;;;;;;;5079564;28;20029;-75
2023/06/05 01:43:31;;;;;;;3.20;1.88;;;;;;;;;;5047806;28;20052;-76
2023/06/05 01:45:58;;;;;;;3.65;2.10;;;;;;;;;;5047888;28;20044;-76
2023/06/05 01:48:27;;;;;;;3.65;1.90;;;;;;;;;;5046982;28;20044;-76
2023/06/05 01:50:57;;;;;;;3.72;2.13;;;;;;;;;;5047272;28;20027;-75
2023/06/05 01:53:23;;;;;;;2.88;1.88;;;;;;;;;;5046896;28;20072;-76
2023/06/05 01:55:49;;;;;;;3.03;2.00;;;;;;;;;;5048102;28;20044;-75
2023/06/05 01:58:15;;;;;;;3.85;2.08;;;;;;;;;;5047425;28;20082;-76
2023/06/05 02:00:41;;;;;;;4.20;2.10;;;;;;;;;;5047838;28;20075;-76
2023/06/05 02:03:07;;;;;;;3.33;1.92;;;;;;;;;;5047186;28;20029;-76
2023/06/05 02:05:33;;;;;;;4.82;2.20;;;;;;;;;;5047090;28;20477;-75
2023/06/05 02:07:58;;;;;;;6.13;2.35;;;;;;;;;;5046324;28;20033;-76
2023/06/05 02:10:24;;;;;;;5.85;2.28;;;;;;;;;;5046918;28;20079;-75
2023/06/05 02:12:50;;;;;;;5.20;2.00;;;;;;;;;;5050507;28;20025;-75
2023/06/05 02:15:16;;;;;;;3.80;1.92;;;;;;;;;;5051286;28;20702;-75
2023/06/05 02:17:45;;;;;;;4.07;2.25;;;;;;;;;;5050634;28;20408;-76
2023/06/05 02:20:15;;;;;;;5.13;2.47;;;;;;;;;;5050583;28;20048;-75
2023/06/05 02:22:41;;;;;;;4.28;2.10;;;;;;;;;;5051127;28;20017;-75
2023/06/05 02:25:07;;;;;;;4.15;2.00;;;;;;;;;;5050471;28;20033;-75
2023/06/05 02:27:33;;;;;;;5.15;2.38;;;;;;;;;;5050578;28;20650;-75
2023/06/05 02:29:59;;;;;;;4.68;2.30;;;;;;;;;;5050251;28;20032;-76
2023/06/05 02:32:25;;;;;;;5.53;2.10;;;;;;;;;;5051163;28;20131;-75
2023/06/05 02:34:52;;;;;;;3.92;2.33;;;;;;;;;;5050163;28;20025;-75
2023/06/05 02:37:18;;;;;;;3.50;2.45;;;;;;;;;;5049975;28;20036;-77
2023/06/05 02:39:44;;;;;;;4.20;2.30;;;;;;;;;;5049858;28;20048;-75
2023/06/05 02:42:12;;;;;;;3.50;2.30;;;;;;;;;;5050793;28;20018;-76
2023/06/05 02:44:38;;;;;;;4.63;2.53;;;;;;;;;;5050825;28;20028;-76
2023/06/05 02:47:03;;;;;;;4.95;2.53;;;;;;;;;;5050696;28;20025;-76
2023/06/05 02:49:29;;;;;;;5.03;2.58;;;;;;;;;;5050833;28;20027;-76
2023/06/05 02:51:55;;;;;;;3.15;2.30;;;;;;;;;;5050673;28;20013;-76
2023/06/05 02:54:21;;;;;;;4.75;2.40;;;;;;;;;;5050480;28;20550;-75
2023/06/05 02:56:47;;;;;;;3.80;2.47;;;;;;;;;;5050614;28;20021;-75
2023/06/05 02:59:12;;;;;;;2.88;2.38;;;;;;;;;;5049512;28;20037;-76
2023/06/05 03:01:47;;;;;;;4.13;2.50;;;;;;;;;;5048674;28;20017;-75
2023/06/05 03:04:13;;;;;;;4.78;2.40;;;;;;;;;;5050607;28;20029;-76
2023/06/05 03:06:38;;;;;;;5.05;2.70;;;;;;;;;;5082260;28;20032;-76
2023/06/05 03:09:04;;;;;;;6.70;2.42;;;;;;;;;;5049953;28;20086;-75
2023/06/05 03:11:29;;;;;;;4.00;2.35;;;;;;;;;;5050488;28;20021;-75
2023/06/05 03:13:55;;;;;;;6.45;2.60;;;;;;;;;;5048528;28;20044;-75
2023/06/05 03:16:23;;;;;;;4.50;2.40;;;;;;;;;;5050558;28;20468;-75
2023/06/05 03:18:49;;;;;;;4.70;2.58;;;;;;;;;;5049889;28;20744;-76
2023/06/05 03:21:14;;;;;;;3.80;2.50;;;;;;;;;;5050536;28;20116;-75
2023/06/05 03:23:40;;;;;;;5.30;2.63;;;;;;;;;;5049591;28;20025;-75
2023/06/05 03:26:05;;;;;;;4.18;2.67;;;;;;;;;;5049703;28;20032;-76
2023/06/05 03:28:33;;;;;;;4.50;2.50;;;;;;;;;;5049739;28;20431;-75
2023/06/05 03:30:59;;;;;;;4.68;2.58;;;;;;;;;;5049232;28;20017;-75
2023/06/05 03:33:24;;;;;;;4.97;2.55;;;;;;;;;;5049449;28;20040;-75
2023/06/05 03:35:49;;;;;;;4.70;2.80;;;;;;;;;;5049397;28;20494;-75
2023/06/05 03:38:15;;;;;;;3.92;2.72;;;;;;;;;;5048480;28;20056;-75
2023/06/05 03:40:41;;;;;;;5.07;2.53;;;;;;;;;;5049008;28;20657;-76
2023/06/05 03:43:07;;;;;;;6.28;2.65;;;;;;;;;;5049318;28;20369;-76
2023/06/05 03:45:34;;;;;;;4.22;2.70;;;;;;;;;;5049813;28;20432;-75
2023/06/05 03:48:00;;;;;;;5.47;2.63;;;;;;;;;;5049199;28;20028;-75
2023/06/05 03:50:28;;;;;;;5.22;2.75;;;;;;;;;;5048789;28;20108;-76
2023/06/05 03:53:02;;;;;;;6.45;2.80;;;;;;;;;;5048704;28;20025;-75
2023/06/05 03:55:40;;;;;;;4.82;3.00;;;;;;;;;;5048708;28;20491;-75
2023/06/05 03:58:13;;;;;;;4.57;2.58;;;;;;;;;;5049280;28;20035;-75
2023/06/05 04:00:40;;;;;;;5.10;2.70;;;;;;;;;;5048340;28;20578;-75
2023/06/05 04:03:05;;;;;;;5.78;2.65;;;;;;;;;;5048954;28;20048;-75
2023/06/05 04:05:31;;;;;;;3.08;2.17;;;;;;;;;;5048524;28;20052;-76
2023/06/05 04:07:56;;;;;;;6.15;2.63;;;;;;;;;;5048394;28;20025;-76
2023/06/05 04:10:21;;;;;;;6.20;2.80;;;;;;;;;;5048548;28;20049;-75
2023/06/05 04:12:47;;;;;;;4.50;2.75;;;;;;;;;;5048452;28;20868;-75
2023/06/05 04:15:12;;;;;;;4.32;2.72;;;;;;;;;;5048349;28;20021;-76
2023/06/05 04:17:38;;;;;;;3.95;2.60;;;;;;;;;;5048757;28;20027;-75
2023/06/05 04:20:04;;;;;;;6.78;2.72;;;;;;;;;;5049223;28;20017;-75
2023/06/05 04:22:31;;;;;;;7.47;2.92;;;;;;;;;;5049127;28;20052;-76
2023/06/05 04:24:56;;;;;;;4.97;2.45;;;;;;;;;;5049383;28;20073;-75
2023/06/05 04:27:28;;;;;;;5.82;2.67;;;;;;;;;;5049413;28;20040;-75
2023/06/05 04:29:53;;;;;;;6.90;2.72;;;;;;;;;;5048719;28;20040;-76
2023/06/05 04:32:19;;;;;;;5.05;2.80;;;;;;;;;;5049675;28;20029;-76
2023/06/05 04:34:45;;;;;;;4.05;2.50;;;;;;;;;;5049133;28;20040;-76
2023/06/05 04:37:10;;;;;;;3.80;2.40;;;;;;;;;;5049739;28;20036;-76
2023/06/05 04:39:36;;;;;;;3.60;2.47;;;;;;;;;;5049163;28;20142;-76
2023/06/05 04:42:01;;;;;;;4.28;2.53;;;;;;;;;;5049220;28;20021;-76
2023/06/05 04:44:27;;;;;;;5.78;2.83;;;;;;;;;;5048669;28;20076;-75
2023/06/05 04:46:53;;;;;;;4.38;2.63;;;;;;;;;;5048892;28;20028;-75
2023/06/05 04:49:18;;;;;;;5.72;2.85;;;;;;;;;;5049036;28;20512;-75
2023/06/05 04:51:44;;;;;;;5.80;3.05;;;;;;;;;;5048588;28;20033;-75
2023/06/05 04:54:10;;;;;;;3.58;2.35;;;;;;;;;;5048868;28;20052;-75
2023/06/05 04:56:38;;;;;;;4.82;2.55;;;;;;;;;;5048675;28;20107;-75
2023/06/05 04:59:03;;;;;;;3.42;2.60;;;;;;;;;;5048685;28;20029;-76
2023/06/05 05:01:32;;;;;;;5.95;2.90;;;;;;;;;;5048424;28;20025;-76
2023/06/05 05:03:59;;;;;;;4.30;2.50;;;;;;;;;;5049167;28;20055;-76
2023/06/05 05:06:25;;;;;;;4.88;2.80;;;;;;;;;;5047969;28;20108;-75
2023/06/05 05:08:51;;;;;;;5.57;2.80;;;;;;;;;;5049135;28;20158;-75
2023/06/05 05:11:17;;;;;;;4.28;2.78;;;;;;;;;;5049021;28;20104;-76
2023/06/05 05:13:43;;;;;;;5.10;2.97;;;;;;;;;;5048612;28;20619;-76
2023/06/05 05:16:09;;;;;;;5.05;2.95;;;;;;;;;;5047995;28;20024;-75
2023/06/05 05:18:36;;;;;;;4.75;2.88;;;;;;;;;;5048566;28;20196;-75
2023/06/05 05:21:04;;;;;;;3.92;2.67;;;;;;;;;;5048284;28;20029;-76
2023/06/05 05:23:30;;;;;;;5.15;2.53;;;;;;;;;;5048369;28;20029;-75
2023/06/05 05:25:55;;;;;;;5.20;2.85;;;;;;;;;;5046793;28;20062;-75
2023/06/05 05:28:21;;;;;;;4.53;2.80;;;;;;;;;;5047640;28;20059;-76
2023/06/05 05:30:46;;;;;;;6.82;2.78;;;;;;;;;;5046817;28;20112;-75
2023/06/05 05:33:12;;;;;;;5.07;2.55;;;;;;;;;;5045792;28;20050;-75
2023/06/05 05:35:37;;;;;;;4.43;2.67;;;;;;;;;;5047465;28;20025;-75
2023/06/05 05:38:03;;;;;;;5.65;3.35;;;;;;;;;;5047614;28;20032;-75
2023/06/05 05:40:28;;;;;;;5.63;3.13;;;;;;;;;;5047665;28;20021;-75
2023/06/05 05:42:53;;;;;;;6.57;3.45;;;;;;;;;;5047167;28;20040;-76
2023/06/05 05:45:19;;;;;;;5.05;3.17;;;;;;;;;;5047248;28;20025;-76
2023/06/05 05:47:45;;;;;;;4.05;2.80;;;;;;;;;;5051951;28;20044;-75
2023/06/05 05:50:10;;;;;;;4.78;2.83;;;;;;;;;;5051785;28;20035;-75
2023/06/05 05:52:35;;;;;;;5.28;2.85;;;;;;;;;;5051929;28;20052;-75
2023/06/05 05:55:03;;;;;;;6.80;3.08;;;;;;;;;;5052370;28;20110;-76
2023/06/05 05:57:28;;;;;;;5.63;2.97;;;;;;;;;;5050147;28;20033;-76
2023/06/05 05:59:54;;;;;;;5.07;2.90;;;;;;;;;;5051340;28;20040;-76
2023/06/05 06:02:20;;;;;;;4.05;2.92;;;;;;;;;;5050703;28;20029;-76
2023/06/05 06:04:46;;;;;;;6.72;3.10;;;;;;;;;;5049587;28;20555;-74
2023/06/05 06:07:12;;;;;;;8.85;3.08;;;;;;;;;;5050388;28;20029;-75
2023/06/05 06:09:37;;;;;;;5.35;3.40;;;;;;;;;;5050883;28;20075;-75
2023/06/05 06:12:05;;;;;;;6.50;3.22;;;;;;;;;;5050513;28;20412;-75
2023/06/05 06:14:32;;;;;;;5.75;2.92;;;;;;;;;;5050808;28;20086;-75
2023/06/05 06:16:58;;;;;;;4.05;2.90;;;;;;;;;;5051231;28;20092;-76
2023/06/05 06:19:24;;;;;;;10.27;2.97;;;;;;;;;;5050317;28;20068;-75
2023/06/05 06:21:53;;;;;;;5.13;2.85;;;;;;;;;;5049674;28;20080;-75
2023/06/05 06:24:21;;;;;;;8.30;2.90;;;;;;;;;;5049766;28;20021;-75
2023/06/05 06:26:48;;;;;;;6.07;2.70;;;;;;;;;;5050712;28;20032;-75
2023/06/05 06:29:23;;;;;;;7.13;2.78;;;;;;;;;;5050906;28;20021;-76
2023/06/05 06:31:49;;;;;;;5.38;2.47;;;;;;;;;;5051006;28;20610;-75
2023/06/05 06:34:16;;;;;;;7.93;2.80;;;;;;;;;;5051219;28;20021;-76
2023/06/05 06:36:43;;;;;;;11.98;2.90;;;;;;;;;;5050087;28;20074;-75
2023/06/05 06:39:11;;;;;;;5.25;2.55;;;;;;;;;;5049541;28;20171;-75
2023/06/05 06:41:37;;;;;;;3.72;2.58;;;;;;;;;;5049140;28;20048;-75
2023/06/05 06:44:03;;;;;;;3.33;2.50;;;;;;;;;;5049758;28;20033;-76
2023/06/05 06:46:29;;;;;;;4.85;2.50;;;;;;;;;;5049692;28;20086;-75
2023/06/05 06:48:55;;;;;;;7.05;2.60;;;;;;;;;;5048134;28;20226;-75
2023/06/05 06:51:23;;;;;;;5.93;2.60;;;;;;;;;;5048356;28;20627;-75
2023/06/05 06:53:49;;;;;;;4.55;2.72;;;;;;;;;;5048604;28;20542;-75
2023/06/05 06:56:18;;;;;;;6.45;2.35;;;;;;;;;;5048511;28;20124;-75
2023/06/05 06:58:45;;;;;;;4.63;2.40;;;;;;;;;;5048846;28;20689;-75
2023/06/05 07:01:11;;;;;;;5.93;3.00;;;;;;;;;;5048967;28;20097;-74
2023/06/05 07:03:38;;;;;;;4.90;2.45;;;;;;;;;;5049644;28;20078;-75
2023/06/05 07:06:03;;;;;;;11.75;2.63;;;;;;;;;;5049559;28;20029;-75
2023/06/05 07:08:29;;;;;;;4.90;2.45;;;;;;;;;;5048959;28;20039;-75
2023/06/05 07:10:55;;;;;;;6.93;2.88;;;;;;;;;;5048153;28;20032;-75
2023/06/05 07:13:21;;;;;;;6.30;2.40;;;;;;;;;;5048379;28;20400;-75
2023/06/05 07:15:50;;;;;;;4.97;2.58;;;;;;;;;;5048712;28;20566;-74
2023/06/05 07:18:20;;;;;;;6.10;2.47;;;;;;;;;;5048477;28;20628;-75
2023/06/05 07:20:45;;;;;;;5.47;2.45;;;;;;;;;;5048570;28;20036;-75
2023/06/05 07:23:11;;;;;;;6.90;2.95;;;;;;;;;;5049230;28;20028;-76
2023/06/05 07:25:37;;;;;;;5.07;2.40;;;;;;;;;;5049923;28;20040;-75
2023/06/05 07:28:12;;;;;;;4.88;2.55;;;;;;;;;;5048764;28;20025;-75
2023/06/05 07:30:38;;;;;;;5.93;2.58;;;;;;;;;;5048284;28;20039;-75
2023/06/05 07:33:04;;;;;;;4.07;2.50;;;;;;;;;;5048106;28;20029;-74
2023/06/05 07:35:29;;;;;;;4.60;2.78;;;;;;;;;;5048581;28;20060;-75
2023/06/05 07:40:33;;;;;;;3.80;2.40;;;;;;;;;;5084719;27;20393;-77
2023/06/05 07:42:59;;;;;;;6.38;2.60;;;;;;;;;;5084907;28;20028;-76
2023/06/05 07:45:25;;;;;;;5.35;2.58;;;;;;;;;;5084634;28;20555;-76
2023/06/05 07:47:50;;;;;;;4.85;2.65;;;;;;;;;;5084887;28;20021;-75
2023/06/05 07:50:15;;;;;;;3.45;2.63;;;;;;;;;;5085043;28;20036;-76
2023/06/05 07:52:41;;;;;;;5.00;2.70;;;;;;;;;;5084660;28;20021;-76
2023/06/05 07:55:07;;;;;;;4.35;2.60;;;;;;;;;;5085614;28;20648;-76
2023/06/05 07:57:33;;;;;;;3.58;2.70;;;;;;;;;;5085204;28;20016;-76
2023/06/05 07:59:58;;;;;;;4.95;3.00;;;;;;;;;;5084831;28;20116;-76
2023/06/05 08:02:24;;;;;;;3.72;2.72;;;;;;;;;;5084256;28;20031;-76
2023/06/05 08:04:52;;;;;;;4.43;2.95;;;;;;;;;;5085576;28;20032;-76
2023/06/05 08:07:18;;;;;;;5.43;3.15;;;;;;;;;;5084912;28;20040;-75
2023/06/05 08:09:43;;;;;;;6.93;3.40;;;;;;;;;;5083611;28;20805;-76
2023/06/05 08:12:09;;;;;;;5.68;3.15;;;;;;;;;;5083888;28;20051;-76
2023/06/05 08:14:35;;;;;;;6.63;3.30;;;;;;;;;;5084828;28;20035;-76
2023/06/05 08:17:00;;;;;;;4.38;3.00;;;;;;;;;;5085302;28;20017;-76
2023/06/05 08:19:26;;;;;;;7.35;3.03;;;;;;;;;;5084784;28;20034;-76
2023/06/05 08:21:53;;;;;;;4.03;3.08;;;;;;;;;;5083334;28;20116;-76
2023/06/05 08:24:20;;;;;;;5.57;2.85;;;;;;;;;;5084021;28;20570;-76
2023/06/05 08:26:45;;;;;;;4.15;2.95;;;;;;;;;;5084292;28;20510;-76
2023/06/05 08:29:12;;;;;;;4.78;3.40;;;;;;;;;;5084090;28;20107;-76
2023/06/05 08:31:37;;;;;;;5.38;3.15;;;;;;;;;;5084419;28;20039;-77
2023/06/05 08:34:04;;;;;;;8.32;3.30;;;;;;;;;;5084111;28;20021;-76
2023/06/05 08:36:32;;;;;;;4.20;2.80;;;;;;;;;;5084860;28;20031;-76
2023/06/05 08:39:00;;;;;;;7.90;3.17;;;;;;;;;;5082671;28;20048;-76
2023/06/05 08:41:26;;;;;;;4.75;3.35;;;;;;;;;;5084288;28;20047;-76
2023/06/05 08:43:52;;;;;;;6.07;3.42;;;;;;;;;;5084503;28;20469;-76
2023/06/05 08:46:18;;;;;;;4.90;3.45;;;;;;;;;;5084582;28;20071;-77
2023/06/05 08:48:50;;;;;;;5.55;3.03;;;;;;;;;;5084441;28;20544;-76
2023/06/05 08:51:17;;;;;;;5.25;3.17;;;;;;;;;;5074323;28;20395;-76
2023/06/05 08:54:12;;;;;;;9.40;3.90;;;;;;;;;;5070019;28;20620;-76
2023/06/05 08:56:39;;;;;;;5.53;3.55;;;;;;;;;;5069267;28;20032;-76
2023/06/05 08:59:06;;;;;;;8.48;3.53;;;;;;;;;;5070337;28;20091;-76
2023/06/05 09:01:35;;;;;;;7.65;3.70;;;;;;;;;;5070681;28;20100;-76
2023/06/05 09:04:00;;;;;;;7.18;3.80;;;;;;;;;;5069719;28;20039;-76
2023/06/05 09:06:27;;;;;;;8.23;3.45;;;;;;;;;;5069630;28;20092;-76
2023/06/05 09:08:53;;;;;;;6.88;3.50;;;;;;;;;;5070336;28;20029;-75
2023/06/05 09:11:23;;;;;;;6.30;3.53;;;;;;;;;;5070410;28;20035;-76
2023/06/05 09:13:49;;;;;;;6.65;3.33;;;;;;;;;;5070118;28;20061;-76
2023/06/05 09:16:19;;;;;;;5.35;3.25;;;;;;;;;;5069543;28;20028;-77
2023/06/05 09:18:58;;;;;;;9.98;3.83;;;;;;;;;;5069527;28;20047;-76
2023/06/05 09:21:28;;;;;;;6.45;3.25;;;;;;;;;;5069363;28;20036;-76
2023/06/05 09:24:11;;;;;;;4.85;3.40;;;;;;;;;;5069978;28;20048;-76
2023/06/05 09:26:59;;;;;;;4.95;3.00;;;;;;;;;;5070115;28;20028;-77
2023/06/05 09:29:31;;;;;;;10.43;3.88;;;;;;;;;;5069401;28;20063;-76
2023/06/05 09:32:15;;;;;;;5.82;3.30;;;;;;;;;;5069352;28;20060;-76
2023/06/05 09:34:41;;;;;;;4.53;3.40;;;;;;;;;;5069222;28;20488;-76
2023/06/05 09:37:09;;;;;;;5.50;3.05;;;;;;;;;;5069797;28;20031;-76
2023/06/05 09:39:36;;;;;;;7.63;3.05;;;;;;;;;;5069086;28;20048;-76
2023/06/05 09:42:02;;;;;;;6.55;3.30;;;;;;;;;;5069613;28;20029;-77
2023/06/05 09:44:29;;;;;;;4.57;2.90;;;;;;;;;;5069194;28;20401;-76
2023/06/05 09:46:55;;;;;;;6.53;3.63;;;;;;;;;;5069103;28;20047;-77
2023/06/05 09:49:39;;;;;;;4.20;3.17;;;;;;;;;;5067733;28;20401;-76
2023/06/05 09:52:07;;;;;;;7.22;3.53;;;;;;;;;;5068894;28;20028;-76
2023/06/05 09:54:34;;;;;;;5.65;2.92;;;;;;;;;;5069369;28;20078;-76
2023/06/05 09:57:04;;;;;;;6.20;3.20;;;;;;;;;;5069001;28;20036;-76
2023/06/05 09:59:35;;;;;;;5.25;3.10;;;;;;;;;;5068980;28;20028;-76
2023/06/05 10:02:06;;;;;;;4.22;2.92;;;;;;;;;;5068426;28;20033;-76
2023/06/05 10:04:56;;;;;;;6.80;3.20;;;;;;;;;;5069000;28;20033;-76
2023/06/05 10:07:22;;;;;;;6.00;3.30;;;;;;;;;;5069214;28;20179;-76
2023/06/05 10:09:49;;;;;;;6.07;3.35;;;;;;;;;;5068368;28;20024;-76
2023/06/05 10:12:15;;;;;;;6.10;3.10;;;;;;;;;;5068661;28;20029;-76
2023/06/05 10:14:42;;;;;;;5.65;3.15;;;;;;;;;;5067720;28;20481;-76
2023/06/05 10:17:08;;;;;;;6.63;3.20;;;;;;;;;;5068877;28;20495;-77
2023/06/05 10:19:34;;;;;;;5.38;2.95;;;;;;;;;;5068434;28;20537;-76
2023/06/05 10:22:01;;;;;;;6.00;3.13;;;;;;;;;;5068443;28;20028;-77
2023/06/05 10:24:37;;;;;;;4.32;2.90;;;;;;;;;;5068246;28;20649;-76
2023/06/05 10:27:15;;;;;;;6.78;3.15;;;;;;;;;;5068389;28;20024;-77
2023/06/05 10:30:20;;;;;;;5.45;2.80;;;;;;;;;;5066832;28;20541;-77
2023/06/05 10:33:22;;;;;;;6.25;2.80;;;;;;;;;;5068736;28;20100;-76
2023/06/05 10:35:54;;;;;;;5.25;2.80;;;;;;;;;;5068150;28;20043;-76
2023/06/05 10:38:24;;;;;;;4.43;2.70;;;;;;;;;;5067877;28;20108;-76
2023/06/05 10:41:01;;;;;;;4.05;3.10;;;;;;;;;;5069036;28;20519;-76
2023/06/05 10:43:35;;;;;;;6.30;2.92;;;;;;;;;;5068576;28;20032;-76
2023/06/05 10:46:27;;;;;;;5.25;3.05;;;;;;;;;;5068682;28;20082;-76
2023/06/05 10:49:07;;;;;;;5.18;2.65;;;;;;;;;;5064928;28;20051;-77
2023/06/05 10:51:43;;;;;;;;;;;;;;;;;;5068148;28;20028;-76
2023/06/05 10:54:24;;;;;;;4.47;2.88;;;;;;;;;;5067705;28;19968;-76
2023/06/05 10:56:52;;;;;;;5.28;3.00;;;;;;;;;;5069248;28;20126;-77
2023/06/05 10:59:21;;;;;;;3.65;2.75;;;;;;;;;;5067787;28;20086;-76
2023/06/05 11:02:26;;;;;;;6.30;3.13;;;;;;;;;;5067754;28;20024;-76
2023/06/05 11:05:04;;;;;;;9.43;2.92;;;;;;;;;;5067737;28;20159;-77
2023/06/05 11:07:30;;;;;;;5.13;2.90;;;;;;;;;;5066986;28;20113;-76
2023/06/05 11:10:01;;;;;;;4.70;2.72;;;;;;;;;;5067693;28;20079;-76
2023/06/05 11:12:47;;;;;;;4.68;2.88;;;;;;;;;;5067844;28;20020;-76
2023/06/05 11:15:14;;;;;;;5.63;3.28;;;;;;;;;;5063261;28;20047;-76
2023/06/05 11:17:44;;;;;;;5.20;3.10;;;;;;;;;;5067865;28;20024;-77
2023/06/05 11:20:26;;;;;;;5.43;3.58;;;;;;;;;;5065988;28;20032;-77
2023/06/05 11:22:52;;;;;;;4.75;3.10;;;;;;;;;;5068108;28;20074;-76
2023/06/05 11:25:21;;;;;;;7.32;2.80;;;;;;;;;;5067925;28;20028;-76
2023/06/05 11:27:56;;;;;;;5.70;3.00;;;;;;;;;;5067659;28;20032;-76
2023/06/05 11:30:31;;;;;;;6.28;3.00;;;;;;;;;;5067484;28;20589;-76
2023/06/05 11:32:58;;;;;;;6.30;2.80;;;;;;;;;;5067463;28;20606;-77
2023/06/05 11:35:29;;;;;;;4.85;2.67;;;;;;;;;;5068015;28;20107;-76
2023/06/05 11:38:12;;;;;;;4.43;2.80;;;;;;;;;;5066454;28;20032;-76
2023/06/05 11:40:39;;;;;;;5.25;2.38;;;;;;;;;;5067132;28;20411;-76
2023/06/05 11:43:06;;;;;;;5.15;2.63;;;;;;;;;;5065798;28;20120;-76
2023/06/05 11:45:36;;;;;;;4.20;2.33;;;;;;;;;;5067352;28;20467;-76
2023/06/05 11:48:09;;;;;;;6.28;2.70;;;;;;;;;;5067634;28;20828;-77
2023/06/05 11:50:56;;;;;;;4.15;2.35;;;;;;;;;;5067887;28;20420;-77
2023/06/05 11:53:22;;;;;;;4.57;2.55;;;;;;;;;;5068527;28;20033;-76
2023/06/05 11:58:29;;;;;;;4.45;2.95;;;;;;;;;;5067903;28;20525;-76
2023/06/05 12:01:25;;;;;;;4.65;2.33;;;;;;;;;;5067038;28;20129;-76
2023/06/05 12:04:07;;;;;;;3.97;2.25;;;;;;;;;;5067106;28;20682;-76
2023/06/05 12:06:39;;;;;;;4.05;2.25;;;;;;;;;;5066786;28;20547;-77
2023/06/05 12:09:11;;;;;;;4.05;2.10;;;;;;;;;;5067660;28;20020;-76
2023/06/05 12:11:38;;;;;;;4.68;2.30;;;;;;;;;;5063878;28;20121;-76
2023/06/05 12:14:04;;;;;;;3.60;2.00;;;;;;;;;;5047094;28;20106;-76
2023/06/05 12:16:37;;;;;;;5.35;2.40;;;;;;;;;;5046829;28;20064;-77
2023/06/05 12:19:14;;;;;;;4.65;2.42;;;;;;;;;;5046813;28;20036;-76
2023/06/05 12:21:39;;;;;;;4.97;2.13;;;;;;;;;;5046497;28;20025;-76
2023/06/05 12:24:06;;;;;;;2.92;2.28;;;;;;;;;;5046446;28;20024;-76
2023/06/05 12:26:59;;;;;;;5.20;2.28;;;;;;;;;;5081438;28;20033;-76
2023/06/05 12:29:38;;;;;;;5.80;2.50;;;;;;;;;;5051122;28;20051;-76
2023/06/05 12:32:22;;;;;;;3.45;2.60;;;;;;;;;;5051350;28;20082;-76
2023/06/05 12:34:51;;;;;;;4.82;2.40;;;;;;;;;;5051260;28;20074;-77
2023/06/05 12:37:25;;;;;;;5.55;2.30;;;;;;;;;;5083386;28;20543;-76
2023/06/05 12:39:51;;;;;;;3.80;2.30;;;;;;;;;;5050139;28;20033;-76
2023/06/05 12:42:16;;;;;;;3.40;2.10;;;;;;;;;;5050604;28;20029;-76
2023/06/05 12:44:42;;;;;;;4.38;2.20;;;;;;;;;;5050942;28;20029;-76
2023/06/05 12:47:07;;;;;;;5.05;2.20;;;;;;;;;;5050347;28;20029;-76
2023/06/05 12:49:33;;;;;;;3.53;2.20;;;;;;;;;;5050675;28;20349;-76
2023/06/05 12:51:58;;;;;;;5.70;2.20;;;;;;;;;;5048616;28;20028;-76
2023/06/05 12:54:24;;;;;;;4.72;2.30;;;;;;;;;;5050500;28;20494;-76
2023/06/05 12:56:50;;;;;;;3.55;2.20;;;;;;;;;;5050507;28;20020;-77
2023/06/05 12:59:15;;;;;;;3.63;2.00;;;;;;;;;;5050889;28;20124;-76
2023/06/05 13:01:40;;;;;;;3.33;2.05;;;;;;;;;;5050577;28;20498;-75
2023/06/05 13:04:06;;;;;;;3.35;2.10;;;;;;;;;;5050692;28;20029;-76
2023/06/05 13:06:33;;;;;;;4.13;2.03;;;;;;;;;;5049371;28;20025;-77
2023/06/05 13:08:59;;;;;;;4.53;2.40;;;;;;;;;;5049857;28;20035;-76
2023/06/05 13:11:24;;;;;;;2.80;1.75;;;;;;;;;;5049908;28;20075;-77
2023/06/05 13:13:50;;;;;;;4.40;2.05;;;;;;;;;;5082761;28;20029;-77
2023/06/05 13:16:15;;;;;;;3.72;2.08;;;;;;;;;;5050970;28;20552;-76
2023/06/05 13:18:41;;;;;;;2.95;1.90;;;;;;;;;;5051096;28;20031;-76
2023/06/05 13:21:06;;;;;;;6.13;2.15;;;;;;;;;;5049940;28;20619;-76
2023/06/05 13:23:32;;;;;;;2.92;2.00;;;;;;;;;;5049333;28;20597;-76
2023/06/05 13:25:58;;;;;;;3.53;1.98;;;;;;;;;;5049749;28;20377;-76
2023/06/05 13:28:24;;;;;;;3.60;2.10;;;;;;;;;;5050406;28;20108;-76
2023/06/05 13:30:49;;;;;;;4.85;1.90;;;;;;;;;;5050096;28;20068;-76
2023/06/05 13:33:15;;;;;;;3.30;1.85;;;;;;;;;;5050327;28;20108;-76
2023/06/05 13:35:40;;;;;;;4.47;1.90;;;;;;;;;;5050151;28;20063;-76
2023/06/05 13:38:06;;;;;;;3.30;1.65;;;;;;;;;;5049649;28;20021;-76
2023/06/05 13:40:32;;;;;;;3.50;1.85;;;;;;;;;;5049224;28;20045;-76
2023/06/05 13:42:58;;;;;;;3.22;1.95;;;;;;;;;;5049653;28;20086;-76
2023/06/05 13:45:24;;;;;;;4.20;2.20;;;;;;;;;;5049191;28;20108;-76
2023/06/05 13:47:49;;;;;;;2.65;1.60;;;;;;;;;;5049789;28;20105;-76
2023/06/05 13:50:15;;;;;;;3.42;1.92;;;;;;;;;;5049345;28;20104;-76
2023/06/05 13:52:40;;;;;;;3.00;1.70;;;;;;;;;;5048772;28;20819;-76
2023/06/05 13:55:06;;;;;;;3.20;1.60;;;;;;;;;;5049875;28;20652;-77
2023/06/05 13:57:32;;;;;;;3.35;1.60;;;;;;;;;;5050006;28;20025;-77
2023/06/05 13:59:57;;;;;;;2.78;1.70;;;;;;;;;;5049476;28;20373;-77
2023/06/05 14:02:23;;;;;;;3.70;1.70;;;;;;;;;;5049372;28;20073;-76
2023/06/05 14:04:48;;;;;;;2.95;1.90;;;;;;;;;;5049272;28;20021;-76
2023/06/05 14:07:14;;;;;;;2.30;1.50;;;;;;;;;;5049425;28;20580;-77
2023/06/05 14:09:40;;;;;;;3.55;1.50;;;;;;;;;;5049487;28;20025;-76
2023/06/05 14:12:06;;;;;;;3.28;1.70;;;;;;;;;;5048660;28;20048;-76
2023/06/05 14:14:32;;;;;;;3.45;1.65;;;;;;;;;;5048728;28;20094;-76
2023/06/05 14:16:57;;;;;;;2.70;1.58;;;;;;;;;;5048782;28;20060;-76
2023/06/05 14:19:23;;;;;;;3.75;1.40;;;;;;;;;;5049222;28;20108;-76
2023/06/05 14:21:49;;;;;;;2.10;1.33;;;;;;;;;;5048616;28;20020;-76
2023/06/05 14:24:15;;;;;;;2.10;1.30;;;;;;;;;;5049471;28;20017;-76
2023/06/05 14:26:41;;;;;;;2.72;1.58;;;;;;;;;;5049052;28;20025;-77
2023/06/05 14:29:06;;;;;;;4.32;1.40;;;;;;;;;;5048407;28;20049;-76
2023/06/05 14:31:31;;;;;;;3.72;1.65;;;;;;;;;;5048409;28;20756;-76
2023/06/05 14:33:57;;;;;;;2.92;1.60;;;;;;;;;;5048416;28;20520;-76
2023/06/05 14:36:23;;;;;;;3.22;1.52;;;;;;;;;;5048761;28;20362;-76
2023/06/05 14:38:48;;;;;;;2.85;1.40;;;;;;;;;;5048733;28;20068;-76
2023/06/05 14:41:13;;;;;;;2.20;1.40;;;;;;;;;;5048279;28;20100;-77
2023/06/05 14:43:39;;;;;;;3.45;1.55;;;;;;;;;;5048692;28;20017;-76
2023/06/05 14:46:04;;;;;;;5.55;1.60;;;;;;;;;;5048988;28;20473;-76
2023/06/05 14:48:31;;;;;;;3.15;1.67;;;;;;;;;;5048444;28;20021;-77
2023/06/05 14:50:56;;;;;;;2.22;1.58;;;;;;;;;;5048762;28;20029;-77
2023/06/05 14:53:22;;;;;;;3.28;1.60;;;;;;;;;;5080274;28;20028;-76
2023/06/05 14:55:47;;;;;;;3.60;1.70;;;;;;;;;;5047162;28;20021;-77